Time;durP1;ratioP1;P1;durP2;ratioP2;P2;SDS_P1;SDS_P2;PMS_P1;PMS_P2;Temp;Humidity;BMP_temperature;BMP_pressure;BME280_temperature;BME280_humidity;BME280_pressure;Samples;Min_cycle;Max_cycle;Signal;HPM_P1;HPM_P2
2022/12/21 00:00:12;;;;;;;28.15;12.90;;;;;;;-143.48;95.70;118439.88;5052570;28;20120;-69
2022/12/21 00:02:39;;;;;;;29.63;13.55;;;;;;;-143.48;95.75;118439.88;5052642;28;20033;-69
2022/12/21 00:05:05;;;;;;;30.42;12.95;;;;;;;-143.48;95.04;118439.88;5052560;28;20032;-69
2022/12/21 00:07:31;;;;;;;29.60;12.55;;;;;;;-143.48;95.05;118439.88;5034731;28;20033;-69
2022/12/21 00:09:57;;;;;;;29.85;12.48;;;;;;;-143.48;94.25;118439.88;5034589;28;20025;-69
2022/12/21 00:12:22;;;;;;;35.33;12.25;;;;;;;-143.48;94.41;118439.88;5052525;28;20025;-69
2022/12/21 00:14:49;;;;;;;26.60;12.23;;;;;;;-143.48;94.26;118439.88;5052499;28;20029;-69
2022/12/21 00:17:14;;;;;;;26.77;12.80;;;;;;;-143.48;94.27;118439.88;5034623;28;20044;-69
2022/12/21 00:19:40;;;;;;;30.02;12.55;;;;;;;-143.48;94.13;118439.88;5051681;28;20055;-69
2022/12/21 00:22:06;;;;;;;29.15;12.27;;;;;;;-143.48;94.07;118439.88;5034932;28;20025;-69
2022/12/21 00:24:32;;;;;;;29.25;13.52;;;;;;;-143.48;94.64;118439.88;5034719;28;20052;-68
2022/12/21 00:26:58;;;;;;;24.70;12.63;;;;;;;-143.48;94.33;118439.88;5052341;28;20031;-68
2022/12/21 00:29:23;;;;;;;29.35;11.63;;;;;;;-143.48;94.67;118439.88;5052300;28;20025;-68
2022/12/21 00:31:50;;;;;;;28.85;11.20;;;;;;;-143.48;93.89;118439.88;5051789;28;20035;-68
2022/12/21 00:34:19;;;;;;;26.80;11.40;;;;;;;-143.48;94.28;118439.88;5054713;28;20543;-68
2022/12/21 00:36:45;;;;;;;28.80;11.75;;;;;;;-143.48;93.92;118439.88;5055978;28;20092;-68
2022/12/21 00:39:11;;;;;;;23.80;11.45;;;;;;;-143.48;93.74;118439.88;5055780;28;20017;-68
2022/12/21 00:41:36;;;;;;;28.08;12.18;;;;;;;-143.48;93.86;118439.88;5055777;28;20024;-68
2022/12/21 00:44:01;;;;;;;29.23;11.50;;;;;;;-143.48;93.54;118439.88;5055752;28;20032;-67
2022/12/21 00:46:30;;;;;;;24.85;11.30;;;;;;;-143.48;93.96;118439.88;5055748;28;20586;-67
2022/12/21 00:48:57;;;;;;;29.38;11.82;;;;;;;-143.48;93.93;118439.88;5055545;28;20029;-68
2022/12/21 00:51:24;;;;;;;30.30;11.80;;;;;;;-143.48;93.27;118439.88;5055638;28;20094;-67
2022/12/21 00:53:52;;;;;;;23.33;10.25;;;;;;;-143.48;92.60;118439.88;5055506;28;20024;-67
2022/12/21 00:56:18;;;;;;;33.00;10.23;;;;;;;-143.48;93.25;118439.88;5055395;28;20043;-67
2022/12/21 00:58:43;;;;;;;24.45;9.48;;;;;;;-143.48;92.70;118439.88;5055439;28;20020;-68
2022/12/21 01:01:13;;;;;;;26.67;10.05;;;;;;;-143.48;93.01;118439.88;5055583;28;20060;-68
2022/12/21 01:03:39;;;;;;;23.13;9.77;;;;;;;-143.48;92.71;118439.88;5055325;28;20024;-68
2022/12/21 01:06:04;;;;;;;23.55;9.88;;;;;;;-143.48;93.05;118439.88;5055364;28;20025;-68
2022/12/21 01:08:30;;;;;;;27.02;10.02;;;;;;;-143.48;93.08;118439.88;5055232;28;20029;-67
2022/12/21 01:11:00;;;;;;;22.70;9.88;;;;;;;-143.48;93.20;118439.88;5055326;28;20099;-67
2022/12/21 01:13:27;;;;;;;23.25;9.43;;;;;;;-143.48;92.83;118439.88;5055189;28;20541;-68
2022/12/21 01:15:52;;;;;;;22.40;10.10;;;;;;;-143.48;92.77;118439.88;5055120;28;20025;-68
2022/12/21 01:18:18;;;;;;;29.45;10.50;;;;;;;-143.48;92.96;118439.88;5055111;28;20503;-68
2022/12/21 01:20:45;;;;;;;25.08;9.38;;;;;;;-143.48;92.83;118439.88;5054999;28;20036;-67
2022/12/21 01:23:10;;;;;;;24.70;9.98;;;;;;;-143.48;93.27;118439.88;5054852;28;20538;-67
2022/12/21 01:25:36;;;;;;;18.20;9.13;;;;;;;-143.48;92.83;118439.88;5054920;28;20064;-68
2022/12/21 01:28:01;;;;;;;27.83;10.23;;;;;;;-143.48;92.88;118439.88;5054863;28;20025;-67
2022/12/21 01:30:26;;;;;;;21.90;9.75;;;;;;;-143.48;93.09;118439.88;5054826;28;20035;-68
2022/12/21 01:32:52;;;;;;;30.80;9.95;;;;;;;-143.48;93.26;118439.88;5037039;28;20055;-68
2022/12/21 01:35:17;;;;;;;22.15;9.52;;;;;;;-143.48;93.05;118439.88;5054833;28;20033;-67
2022/12/21 01:37:43;;;;;;;22.58;9.45;;;;;;;-143.48;92.96;118439.88;5054730;28;20468;-67
2022/12/21 01:40:10;;;;;;;23.23;8.57;;;;;;;-143.48;92.88;118439.88;5054708;28;20024;-67
2022/12/21 01:42:35;;;;;;;30.75;9.88;;;;;;;-143.48;92.73;118439.88;5036922;28;20502;-68
2022/12/21 01:45:26;;;;;;;26.02;9.27;;;;;;;-143.48;92.83;118439.88;5054287;28;20048;-69
2022/12/21 01:47:58;;;;;;;21.58;8.82;;;;;;;-143.48;92.96;118439.88;5054499;28;20021;-69
2022/12/21 01:50:48;;;;;;;27.35;9.23;;;;;;;-143.48;92.89;118439.88;5054475;28;20021;-68
2022/12/21 01:53:30;;;;;;;25.98;9.52;;;;;;;-143.48;92.40;118439.88;5054500;28;20028;-68
2022/12/21 01:55:57;;;;;;;20.75;9.30;;;;;;;-143.48;92.69;118439.88;5036548;28;20510;-68
2022/12/21 01:58:25;;;;;;;25.85;9.25;;;;;;;-143.48;92.54;118439.88;5054334;28;20017;-68
2022/12/21 02:00:51;;;;;;;27.08;9.07;;;;;;;-143.48;92.56;118439.88;5054157;28;20397;-68
2022/12/21 02:03:21;;;;;;;24.30;9.95;;;;;;;-143.48;92.80;118439.88;5054183;28;20021;-69
2022/12/21 02:05:53;;;;;;;23.45;9.48;;;;;;;-143.48;92.83;118439.88;5054250;28;20036;-68
2022/12/21 02:08:19;;;;;;;19.02;8.70;;;;;;;-143.48;93.16;118439.88;5054082;28;20025;-68
2022/12/21 02:10:46;;;;;;;19.40;8.82;;;;;;;-143.48;92.94;118439.88;5054155;28;20021;-69
2022/12/21 02:13:15;;;;;;;19.98;9.40;;;;;;;-143.48;93.23;118439.88;5054308;28;20032;-68
2022/12/21 02:16:00;;;;;;;21.08;8.77;;;;;;;-143.48;92.83;118439.88;5053968;28;20025;-68
2022/12/21 02:18:41;;;;;;;21.60;8.65;;;;;;;-143.48;93.30;118439.88;5053846;28;20118;-68
2022/12/21 02:21:27;;;;;;;27.95;8.93;;;;;;;-143.48;92.65;118439.88;5053779;28;20028;-68
2022/12/21 02:24:14;;;;;;;20.60;8.63;;;;;;;-143.48;92.47;118439.88;5053673;28;20053;-68
2022/12/21 02:27:10;;;;;;;20.23;8.77;;;;;;;-143.48;92.70;118439.88;5054068;28;20033;-69
2022/12/21 02:30:00;;;;;;;20.17;8.32;;;;;;;-143.48;92.73;118439.88;5035939;28;20033;-68
2022/12/21 02:32:55;;;;;;;19.85;8.65;;;;;;;-143.48;92.51;118439.88;5053680;28;20037;-68
2022/12/21 02:35:40;;;;;;;26.48;9.00;;;;;;;-143.48;92.19;118439.88;5053824;28;20090;-69
2022/12/21 02:38:26;;;;;;;25.65;9.43;;;;;;;-143.48;92.17;118439.88;5053661;28;20037;-69
2022/12/21 02:41:28;;;;;;;22.77;8.85;;;;;;;-143.48;92.90;118439.88;5035726;28;20017;-68
2022/12/21 02:44:14;;;;;;;25.73;9.75;;;;;;;-143.48;92.92;118439.88;5053469;28;20440;-68
2022/12/21 02:46:50;;;;;;;20.73;8.93;;;;;;;-143.48;92.47;118439.88;5053418;28;20021;-68
2022/12/21 02:49:28;;;;;;;24.02;9.77;;;;;;;-143.48;93.14;118439.88;5053322;28;20043;-69
2022/12/21 02:52:29;;;;;;;21.55;9.43;;;;;;;-143.48;92.95;118439.88;5053365;28;20021;-68
2022/12/21 02:54:59;;;;;;;31.58;10.27;;;;;;;-143.48;93.21;118439.88;5019649;28;20119;-69
2022/12/21 02:57:38;;;;;;;20.50;8.80;;;;;;;-143.48;93.19;118439.88;5052687;28;20025;-69
2022/12/21 03:00:11;;;;;;;28.55;10.20;;;;;;;-143.48;93.71;118439.88;5053344;28;20486;-68
2022/12/21 03:03:47;;;;;;;22.30;9.00;;;;;;;-143.48;93.65;118439.88;5053256;28;20109;-68
2022/12/21 03:05:51;;;;;;;23.75;9.32;;;;;;;-143.48;93.58;118439.88;5052970;28;20037;-68
2022/12/21 03:08:50;;;;;;;19.45;8.73;;;;;;;-143.48;93.33;118439.88;5053141;28;20031;-68
2022/12/21 03:11:15;;;;;;;25.20;9.13;;;;;;;-143.48;93.22;118439.88;5044778;28;20047;-68
2022/12/21 03:13:49;;;;;;;26.02;9.85;;;;;;;-143.48;93.40;118439.88;5053223;28;20033;-68
2022/12/21 03:16:57;;;;;;;24.10;9.57;;;;;;;-143.48;93.84;118439.88;5053098;28;20042;-69
2022/12/21 03:19:46;;;;;;;27.52;10.10;;;;;;;-143.48;93.50;118439.88;5051847;28;20029;-68
2022/12/21 03:22:22;;;;;;;25.35;10.13;;;;;;;-143.48;94.00;118439.88;5053006;28;20032;-68
2022/12/21 03:24:58;;;;;;;23.88;10.05;;;;;;;-143.48;93.43;118439.88;5053036;28;20404;-68
2022/12/21 03:27:28;;;;;;;24.90;9.98;;;;;;;-143.48;93.38;118439.88;5052900;28;20017;-68
2022/12/21 03:30:02;;;;;;;22.42;10.40;;;;;;;-143.48;93.37;118439.88;5052973;28;20057;-68
2022/12/21 03:32:44;;;;;;;28.02;10.48;;;;;;;-143.48;93.59;118439.88;5052833;28;20031;-68
2022/12/21 03:35:22;;;;;;;26.80;10.38;;;;;;;-143.48;93.92;118439.88;5052864;28;20028;-68
2022/12/21 03:37:51;;;;;;;33.60;10.82;;;;;;;-143.48;93.71;118439.88;5052837;28;20033;-68
2022/12/21 03:40:24;;;;;;;25.00;11.50;;;;;;;-143.48;93.58;118439.88;5052729;28;20048;-69
2022/12/21 03:42:59;;;;;;;28.05;11.45;;;;;;;-143.48;94.12;118439.88;5052899;28;20020;-68
2022/12/21 03:45:33;;;;;;;31.08;10.45;;;;;;;-143.48;93.79;118439.88;5052841;28;20127;-68
2022/12/21 03:48:14;;;;;;;21.65;11.07;;;;;;;-143.48;94.33;118439.88;5052652;28;20048;-69
2022/12/21 03:50:44;;;;;;;22.42;11.00;;;;;;;-143.48;93.91;118439.88;5052667;28;20032;-69
2022/12/21 03:53:32;;;;;;;24.80;11.15;;;;;;;-143.48;94.13;118439.88;5051510;28;20021;-69
2022/12/21 03:56:03;;;;;;;29.27;12.02;;;;;;;-143.48;93.89;118439.88;5052733;28;20035;-68
2022/12/21 03:58:29;;;;;;;28.55;12.35;;;;;;;-143.48;93.12;118439.88;5052659;28;20075;-68
2022/12/21 04:01:15;;;;;;;30.88;11.70;;;;;;;-143.48;93.71;118439.88;5052700;28;20033;-69
2022/12/21 04:03:42;;;;;;;25.73;11.70;;;;;;;-143.48;93.48;118439.88;5052700;28;20075;-68
2022/12/21 04:06:20;;;;;;;28.40;11.52;;;;;;;-143.48;93.69;118439.88;5052599;28;20025;-68
2022/12/21 04:08:47;;;;;;;26.88;11.75;;;;;;;-143.48;93.55;118439.88;5055663;28;20025;-69
2022/12/21 04:12:36;;;;;;;28.88;12.13;;;;;;;-143.48;93.67;118439.88;5056463;28;20449;-68
2022/12/21 04:13:59;;;;;;;30.55;12.77;;;;;;;-143.48;94.03;118439.88;5056310;28;20036;-68
2022/12/21 04:16:24;;;;;;;33.17;12.85;;;;;;;-143.48;94.86;118439.88;5056277;28;20021;-68
2022/12/21 04:21:34;;;;;;;29.45;12.95;;;;;;;-143.48;93.92;118439.88;5056350;28;20082;-68
2022/12/21 04:29:27;;;;;;;28.58;12.93;;;;;;;-143.48;94.04;118439.88;5056021;28;20036;-68
2022/12/21 04:31:52;;;;;;;32.70;13.45;;;;;;;-143.48;94.19;118439.88;5056045;28;20388;-68
2022/12/21 04:34:17;;;;;;;36.13;13.45;;;;;;;-143.48;94.76;118439.88;5038150;28;20027;-68
2022/12/21 04:39:26;;;;;;;30.95;13.88;;;;;;;-143.48;94.67;118439.88;5056203;28;20111;-68
2022/12/21 04:41:51;;;;;;;30.77;14.50;;;;;;;-143.48;95.06;118439.88;5055940;28;20041;-68
2022/12/21 04:44:17;;;;;;;32.75;13.82;;;;;;;-143.48;95.88;118439.88;5055882;28;20491;-68
2022/12/21 04:46:42;;;;;;;29.08;13.35;;;;;;;-143.48;96.58;118439.88;5055891;28;20036;-68
2022/12/21 04:49:07;;;;;;;30.85;13.57;;;;;;;-143.48;96.02;118439.88;5055660;28;20490;-68
2022/12/21 04:51:33;;;;;;;36.65;14.57;;;;;;;-143.48;96.29;118439.88;5055864;28;20017;-68
2022/12/21 04:54:01;;;;;;;38.67;15.07;;;;;;;-143.48;96.60;118439.88;5055580;28;20431;-68
2022/12/21 04:56:26;;;;;;;34.95;14.90;;;;;;;-143.48;96.83;118439.88;5055541;28;20036;-68
2022/12/21 04:58:51;;;;;;;35.28;14.30;;;;;;;-143.48;96.37;118439.88;5055735;28;20013;-68
2022/12/21 05:01:20;;;;;;;37.55;14.88;;;;;;;-143.48;96.17;118439.88;5037590;28;20038;-69
2022/12/21 05:03:47;;;;;;;30.80;14.45;;;;;;;-143.48;96.38;118439.88;5055602;28;20032;-68
2022/12/21 05:06:13;;;;;;;34.58;14.27;;;;;;;-143.48;96.52;118439.88;5055464;28;20033;-68
2022/12/21 05:08:39;;;;;;;33.50;14.75;;;;;;;-143.48;96.65;118439.88;5055206;28;20396;-68
2022/12/21 05:11:22;;;;;;;37.10;15.85;;;;;;;-143.48;96.52;118439.88;5055314;28;20029;-68
2022/12/21 05:13:48;;;;;;;34.75;15.52;;;;;;;-143.48;96.70;118439.88;5055327;28;20100;-69
2022/12/21 05:16:17;;;;;;;42.50;15.75;;;;;;;-143.48;96.44;118439.88;5055512;28;20021;-69
2022/12/21 05:18:43;;;;;;;42.45;16.08;;;;;;;-143.48;96.86;118439.88;5054759;28;20021;-68
2022/12/21 05:21:09;;;;;;;38.58;15.82;;;;;;;-143.48;96.82;118439.88;5055167;28;20029;-68
2022/12/21 05:23:34;;;;;;;40.60;16.20;;;;;;;-143.48;97.34;118439.88;5055519;28;20049;-68
2022/12/21 05:26:01;;;;;;;42.63;16.25;;;;;;;-143.48;96.58;118439.88;5055722;28;20031;-68
2022/12/21 05:28:27;;;;;;;46.22;16.40;;;;;;;-143.48;97.60;118439.88;5055625;28;20121;-69
2022/12/21 05:30:52;;;;;;;51.60;17.00;;;;;;;-143.48;98.03;118439.88;5055967;28;20388;-68
2022/12/21 05:33:17;;;;;;;65.07;15.23;;;;;;;-143.48;98.04;118439.88;5056160;28;20031;-68
2022/12/21 05:35:42;;;;;;;61.97;15.45;;;;;;;-143.48;97.79;118439.88;5038277;28;20025;-69
2022/12/21 05:38:08;;;;;;;62.03;16.10;;;;;;;-143.48;97.45;118439.88;5038115;28;20376;-68
2022/12/21 05:40:34;;;;;;;72.20;16.65;;;;;;;-143.48;97.94;118439.88;5056166;28;20061;-69
2022/12/21 05:43:04;;;;;;;56.28;16.63;;;;;;;-143.48;98.23;118439.88;5056064;28;20033;-69
2022/12/21 05:45:29;;;;;;;56.53;16.45;;;;;;;-143.48;98.23;118439.88;5055861;28;20036;-69
2022/12/21 05:47:55;;;;;;;60.05;16.42;;;;;;;-143.48;98.37;118439.88;5055608;28;20021;-69
2022/12/21 05:50:21;;;;;;;57.33;17.48;;;;;;;-143.48;98.06;118439.88;5055543;28;20025;-69
2022/12/21 05:52:46;;;;;;;95.57;16.98;;;;;;;-143.48;98.32;118439.88;5037598;28;20104;-68
2022/12/21 05:55:12;;;;;;;76.72;17.95;;;;;;;-143.48;98.77;118439.88;5055093;28;20053;-68
2022/12/21 05:57:37;;;;;;;65.72;16.58;;;;;;;-143.48;99.41;118439.88;5054985;28;20032;-69
2022/12/21 06:00:04;;;;;;;76.55;18.27;;;;;;;-143.48;99.98;118439.88;5054923;28;20029;-69
2022/12/21 06:02:29;;;;;;;65.97;17.33;;;;;;;-143.48;100.00;118439.88;5054521;28;20052;-68
2022/12/21 06:04:55;;;;;;;52.50;16.75;;;;;;;-143.48;100.00;118439.88;5054709;28;20079;-68
2022/12/21 06:07:20;;;;;;;64.95;16.77;;;;;;;-143.48;100.00;118439.88;5054316;28;20029;-69
2022/12/21 06:09:45;;;;;;;52.38;16.73;;;;;;;-143.48;99.89;118439.88;5054209;28;20025;-69
2022/12/21 06:12:10;;;;;;;67.95;16.88;;;;;;;-143.48;99.55;118439.88;5054176;28;20021;-69
2022/12/21 06:14:36;;;;;;;49.55;15.90;;;;;;;-143.48;99.38;118439.88;5054154;28;20384;-69
2022/12/21 06:17:01;;;;;;;61.17;16.90;;;;;;;-143.48;98.76;118439.88;5054292;28;20111;-69
2022/12/21 06:19:26;;;;;;;44.53;15.85;;;;;;;-143.48;99.06;118439.88;5054128;28;20464;-69
2022/12/21 06:21:51;;;;;;;81.95;16.50;;;;;;;-143.48;99.00;118439.88;5053880;28;20055;-68
2022/12/21 06:24:17;;;;;;;57.58;15.93;;;;;;;-143.48;99.21;118439.88;5053899;28;20091;-68
2022/12/21 06:26:42;;;;;;;69.03;16.30;;;;;;;-143.48;99.35;118439.88;5053962;28;20052;-68
2022/12/21 06:29:07;;;;;;;69.57;16.45;;;;;;;-143.48;99.71;118439.88;5053825;28;20056;-68
2022/12/21 06:31:33;;;;;;;52.95;16.77;;;;;;;-143.48;99.86;118439.88;5052906;28;20435;-68
2022/12/21 06:33:58;;;;;;;64.78;16.63;;;;;;;-143.48;99.49;118439.88;5035892;28;20074;-68
2022/12/21 06:36:23;;;;;;;68.40;17.25;;;;;;;-143.48;99.58;118439.88;5053967;28;20033;-69
2022/12/21 06:38:49;;;;;;;54.10;16.92;;;;;;;-143.48;99.85;118439.88;5053658;28;20465;-68
2022/12/21 06:41:16;;;;;;;89.68;17.98;;;;;;;-143.48;99.49;118439.88;5053732;28;20052;-68
2022/12/21 06:43:43;;;;;;;88.63;17.25;;;;;;;-143.48;99.72;118439.88;5053481;28;20488;-69
2022/12/21 06:46:16;;;;;;;92.07;19.15;;;;;;;-143.48;99.66;118439.88;5053505;28;20087;-68
2022/12/21 06:48:42;;;;;;;94.38;18.65;;;;;;;-143.48;100.00;118439.88;5053420;28;20033;-68
2022/12/21 06:51:11;;;;;;;90.10;19.95;;;;;;;-143.48;99.95;118439.88;5053307;28;20029;-68
2022/12/21 06:53:38;;;;;;;97.50;19.73;;;;;;;-143.48;100.00;118439.88;5053469;28;20101;-68
2022/12/21 06:56:05;;;;;;;71.47;19.80;;;;;;;-143.48;100.00;118439.88;5053329;28;20021;-68
2022/12/21 06:58:31;;;;;;;65.93;20.42;;;;;;;-143.48;100.00;118439.88;5053179;28;20021;-68
2022/12/21 07:01:06;;;;;;;71.20;19.33;;;;;;;-143.48;99.57;118439.88;5053134;28;20036;-69
2022/12/21 07:03:31;;;;;;;105.20;20.40;;;;;;;-143.48;99.57;118439.88;5053296;28;20104;-69
2022/12/21 07:05:57;;;;;;;59.10;20.52;;;;;;;-143.48;99.54;118439.88;5053054;28;20103;-68
2022/12/21 07:08:22;;;;;;;59.13;19.77;;;;;;;-143.48;99.83;118439.88;5053064;28;20059;-68
2022/12/21 07:10:48;;;;;;;79.35;21.35;;;;;;;-143.48;99.50;118439.88;5053286;28;20461;-68
2022/12/21 07:13:13;;;;;;;66.70;21.40;;;;;;;-143.48;99.40;118439.88;5053270;28;20021;-68
2022/12/21 07:15:38;;;;;;;69.70;22.48;;;;;;;-143.48;99.53;118439.88;5052985;28;20025;-68
2022/12/21 07:18:04;;;;;;;51.70;21.38;;;;;;;-143.48;99.80;118439.88;5052145;28;20472;-68
2022/12/21 07:20:29;;;;;;;60.22;22.30;;;;;;;-143.48;99.99;118439.88;5052937;28;20082;-68
2022/12/21 07:22:54;;;;;;;52.97;21.17;;;;;;;-143.48;99.67;118439.88;5052801;28;20060;-68
2022/12/21 07:25:20;;;;;;;66.90;21.77;;;;;;;-143.48;99.44;118439.88;5052941;28;20039;-68
2022/12/21 07:27:45;;;;;;;58.80;21.70;;;;;;;-143.48;99.29;118439.88;5052920;28;20530;-68
2022/12/21 07:30:11;;;;;;;64.28;23.02;;;;;;;-143.48;99.58;118439.88;5035025;28;20027;-68
2022/12/21 07:32:37;;;;;;;66.88;22.50;;;;;;;-143.48;99.53;118439.88;5052083;28;20072;-70
2022/12/21 07:35:02;;;;;;;71.75;22.13;;;;;;;-143.48;99.79;118439.88;5051230;28;20107;-68
2022/12/21 07:37:27;;;;;;;59.53;22.30;;;;;;;-143.48;99.58;118439.88;5052612;28;20098;-68
2022/12/21 07:39:53;;;;;;;64.80;22.90;;;;;;;-143.48;99.11;118439.88;5052761;28;20476;-68
2022/12/21 07:42:18;;;;;;;59.88;21.95;;;;;;;-143.48;99.59;118439.88;5053605;28;20110;-68
2022/12/21 07:44:43;;;;;;;58.25;21.00;;;;;;;-143.48;99.25;118439.88;5056928;28;20031;-68
2022/12/21 07:47:09;;;;;;;63.65;21.60;;;;;;;-143.48;99.22;118439.88;5056864;28;20028;-68
2022/12/21 07:49:34;;;;;;;58.38;21.73;;;;;;;-143.48;99.18;118439.88;5056901;28;20025;-68
2022/12/21 07:52:00;;;;;;;51.67;20.38;;;;;;;-143.48;98.37;118439.88;5056693;28;20499;-68
2022/12/21 07:54:26;;;;;;;53.10;20.25;;;;;;;-143.48;98.66;118439.88;5056695;28;20255;-68
2022/12/21 07:56:51;;;;;;;55.88;19.98;;;;;;;-143.48;98.82;118439.88;5056681;28;20489;-68
2022/12/21 07:59:16;;;;;;;50.40;20.75;;;;;;;-143.48;99.40;118439.88;5038814;28;20032;-68
2022/12/21 08:01:42;;;;;;;55.72;20.70;;;;;;;-143.48;99.30;118439.88;5055593;28;20028;-67
2022/12/21 08:04:07;;;;;;;49.60;20.80;;;;;;;-143.48;99.42;118439.88;5056977;28;20086;-68
2022/12/21 08:06:33;;;;;;;47.45;21.05;;;;;;;-143.48;99.41;118439.88;5057038;28;20020;-68
2022/12/21 08:08:59;;;;;;;51.58;21.38;;;;;;;-143.48;99.25;118439.88;5056260;28;20036;-68
2022/12/21 08:11:24;;;;;;;53.53;22.77;;;;;;;-143.48;99.00;118439.88;5056287;28;20476;-68
2022/12/21 08:13:50;;;;;;;51.55;21.42;;;;;;;-143.48;99.02;118439.88;5056304;28;20021;-68
2022/12/21 08:16:17;;;;;;;59.47;21.92;;;;;;;-143.48;98.76;118439.88;5056146;28;20028;-68
2022/12/21 08:18:43;;;;;;;50.55;22.00;;;;;;;-143.48;98.52;118439.88;5056130;28;20067;-68
2022/12/21 08:21:09;;;;;;;49.85;21.20;;;;;;;-143.48;98.14;118439.88;5056268;28;20065;-68
2022/12/21 08:23:34;;;;;;;46.90;19.30;;;;;;;-143.48;97.68;118439.88;5056272;28;20507;-67
2022/12/21 08:26:05;;;;;;;48.42;19.88;;;;;;;-143.48;97.79;118439.88;5055871;28;20476;-68
2022/12/21 08:28:30;;;;;;;46.30;20.60;;;;;;;-143.48;97.32;118439.88;5038123;28;20039;-68
2022/12/21 08:31:11;;;;;;;49.03;20.92;;;;;;;-143.48;97.84;118439.88;5055947;28;20120;-69
2022/12/21 08:33:37;;;;;;;52.17;20.30;;;;;;;-143.48;97.55;118439.88;5055526;28;20388;-68
2022/12/21 08:36:03;;;;;;;45.10;20.63;;;;;;;-143.48;98.06;118439.88;5055774;28;20025;-69
2022/12/21 08:38:28;;;;;;;47.92;21.05;;;;;;;-143.48;98.14;118439.88;5037763;28;20025;-69
2022/12/21 08:40:53;;;;;;;49.13;21.05;;;;;;;-143.48;97.59;118439.88;5055720;28;20029;-69
2022/12/21 08:43:19;;;;;;;55.78;20.88;;;;;;;-143.48;97.22;118439.88;5037830;28;20494;-69
2022/12/21 08:45:44;;;;;;;54.92;21.00;;;;;;;-143.48;97.17;118439.88;5055538;28;20025;-69
2022/12/21 08:48:10;;;;;;;49.05;20.17;;;;;;;-143.48;96.44;118439.88;5055130;28;20407;-69
2022/12/21 08:50:36;;;;;;;47.72;22.17;;;;;;;-143.48;96.98;118439.88;5055134;28;20392;-69
2022/12/21 08:53:02;;;;;;;45.60;19.80;;;;;;;-143.48;96.60;118439.88;5055036;28;20027;-69
2022/12/21 08:55:27;;;;;;;44.80;19.42;;;;;;;-143.48;96.73;118439.88;5053886;28;20025;-69
2022/12/21 08:57:52;;;;;;;50.85;20.35;;;;;;;-143.48;96.74;118439.88;5055098;28;20017;-69
2022/12/21 09:00:18;;;;;;;42.78;19.35;;;;;;;-143.48;96.39;118439.88;5055831;28;20025;-68
2022/12/21 09:02:43;;;;;;;43.20;19.08;;;;;;;-143.48;96.29;118439.88;5038242;28;20021;-69
2022/12/21 09:05:08;;;;;;;41.85;19.33;;;;;;;-143.48;96.29;118439.88;5055836;28;20029;-69
2022/12/21 09:07:34;;;;;;;40.13;19.77;;;;;;;-143.48;95.80;118439.88;5057066;28;20116;-70
2022/12/21 09:10:00;;;;;;;50.65;19.98;;;;;;;-143.48;96.42;118439.88;5055945;28;20060;-69
2022/12/21 09:12:27;;;;;;;41.38;19.83;;;;;;;-143.48;96.07;118439.88;5038928;28;20480;-71
2022/12/21 09:14:52;;;;;;;42.92;19.42;;;;;;;-143.48;95.75;118439.88;5055320;28;20021;-69
2022/12/21 09:17:18;;;;;;;44.13;19.00;;;;;;;-143.48;95.44;118439.88;5038443;28;20028;-69
2022/12/21 09:19:43;;;;;;;42.78;19.00;;;;;;;-143.48;94.19;118439.88;5038133;28;20017;-70
2022/12/21 09:22:09;;;;;;;42.13;19.33;;;;;;;-143.48;92.89;118439.88;5038954;28;20029;-70
2022/12/21 09:24:34;;;;;;;44.00;18.95;;;;;;;-143.48;92.65;118439.88;5038533;28;20049;-71
2022/12/21 09:27:00;;;;;;;43.35;18.80;;;;;;;-143.48;91.77;118439.88;5056303;28;20031;-69
2022/12/21 09:29:26;;;;;;;42.33;17.65;;;;;;;-143.48;91.17;118439.88;5055619;28;20021;-70
2022/12/21 09:31:52;;;;;;;39.15;18.23;;;;;;;-143.48;90.30;118439.88;5036243;28;20356;-68
2022/12/21 09:34:21;;;;;;;37.85;18.17;;;;;;;-143.48;90.66;118439.88;5054107;28;20393;-68
2022/12/21 09:36:48;;;;;;;43.72;18.17;;;;;;;-143.48;91.30;118439.88;5052974;28;20068;-67
2022/12/21 09:39:13;;;;;;;38.17;17.45;;;;;;;-143.48;90.11;118439.88;5052994;28;20025;-67
2022/12/21 09:42:00;;;;;;;38.05;16.85;;;;;;;-143.48;90.19;118439.88;5052552;28;20392;-67
2022/12/21 09:44:44;;;;;;;34.00;16.35;;;;;;;-143.48;90.36;118439.88;5054572;28;20424;-67
2022/12/21 09:47:14;;;;;;;35.65;16.30;;;;;;;-143.48;91.00;118439.88;5054420;28;20388;-67
2022/12/21 09:49:44;;;;;;;31.88;15.32;;;;;;;-143.48;91.74;118439.88;5053866;28;20330;-68
2022/12/21 09:52:34;;;;;;;33.28;15.82;;;;;;;-143.48;90.48;118439.88;5053952;28;20522;-67
2022/12/21 09:55:11;;;;;;;38.22;15.93;;;;;;;-143.48;90.71;118439.88;5054497;28;20034;-67
2022/12/21 09:57:36;;;;;;;37.08;16.08;;;;;;;-143.48;90.97;118439.88;5053721;28;20502;-69
2022/12/21 10:00:14;;;;;;;33.60;14.95;;;;;;;-143.48;89.26;118439.88;5036519;28;20108;-68
2022/12/21 10:02:51;;;;;;;41.13;15.40;;;;;;;-143.48;89.87;118439.88;5054226;28;20024;-68
2022/12/21 10:05:35;;;;;;;35.33;14.70;;;;;;;-143.48;90.48;118439.88;5054220;28;20103;-67
2022/12/21 10:08:30;;;;;;;33.05;14.32;;;;;;;-143.48;80.43;118439.88;5036209;28;20442;-67
2022/12/21 10:11:18;;;;;;;31.83;13.00;;;;;;;-143.48;66.73;118439.88;5054136;28;20036;-68
2022/12/21 10:14:31;;;;;;;25.50;11.98;;;;;;;-143.48;61.77;118439.88;5054240;28;20541;-68
2022/12/21 10:17:20;;;;;;;25.48;10.95;;;;;;;-143.48;60.54;118439.88;5054001;28;20081;-68
2022/12/21 10:20:33;;;;;;;24.38;10.00;;;;;;;-143.48;57.35;118439.88;5054249;28;20029;-68
2022/12/21 10:23:09;;;;;;;21.60;10.18;;;;;;;-143.48;57.66;118439.88;5020308;28;20123;-68
2022/12/21 10:25:44;;;;;;;22.85;9.55;;;;;;;-143.48;55.49;118439.88;5053656;28;20049;-69
2022/12/21 10:28:22;;;;;;;19.02;8.50;;;;;;;-143.48;54.71;118439.88;5052732;28;20060;-71
2022/12/21 10:30:57;;;;;;;19.95;8.02;;;;;;;-143.48;54.80;118439.88;5052389;28;20033;-69
2022/12/21 10:33:23;;;;;;;20.05;8.48;;;;;;;-143.48;54.26;118439.88;5036812;28;20433;-69
2022/12/21 10:35:53;;;;;;;18.02;8.10;;;;;;;-143.48;52.58;118439.88;5035906;28;20056;-68
2022/12/21 10:38:19;;;;;;;17.58;8.13;;;;;;;-143.48;53.00;118439.88;5052165;28;20431;-68
2022/12/21 10:40:49;;;;;;;19.75;8.32;;;;;;;-143.48;56.96;118439.88;5033996;28;20025;-69
2022/12/21 10:43:15;;;;;;;18.20;7.35;;;;;;;-143.48;61.74;118439.88;5051317;28;20032;-69
2022/12/21 10:45:40;;;;;;;19.95;8.25;;;;;;;-143.48;69.35;118439.88;5051400;28;20021;-69
2022/12/21 10:48:07;;;;;;;21.40;8.85;;;;;;;-143.48;73.71;118439.88;5050971;28;20435;-69
2022/12/21 10:50:39;;;;;;;20.95;8.25;;;;;;;-143.48;75.47;118439.88;5049913;28;20049;-68
2022/12/21 10:53:25;;;;;;;19.58;8.75;;;;;;;-143.48;76.17;118439.88;5049112;28;20108;-69
2022/12/21 10:55:53;;;;;;;25.65;9.00;;;;;;;-143.48;77.54;118439.88;5050028;28;20025;-68
2022/12/21 10:58:22;;;;;;;23.48;9.13;;;;;;;-143.48;79.38;118439.88;5051230;28;20472;-68
2022/12/21 11:00:52;;;;;;;26.25;9.75;;;;;;;-143.48;81.58;118439.88;5050942;28;20059;-68
2022/12/21 11:03:23;;;;;;;22.38;10.55;;;;;;;-143.48;83.30;118439.88;5051224;28;20384;-68
2022/12/21 11:05:49;;;;;;;28.02;10.85;;;;;;;-143.48;84.81;118439.88;5052905;28;20024;-68
2022/12/21 11:08:14;;;;;;;29.95;11.40;;;;;;;-143.48;85.64;118439.88;5050640;28;20028;-68
2022/12/21 11:11:01;;;;;;;27.25;12.48;;;;;;;-143.48;85.99;118439.88;5051542;28;20020;-68
2022/12/21 11:13:29;;;;;;;33.25;12.30;;;;;;;-143.48;88.34;118439.88;5052887;28;20033;-69
2022/12/21 11:16:09;;;;;;;32.20;13.07;;;;;;;-143.48;88.27;118439.88;5051012;28;20025;-68
2022/12/21 11:18:49;;;;;;;26.27;13.30;;;;;;;-143.48;89.21;118439.88;5050474;28;20036;-68